Briefing drone pour Saint-marcel-les-valence

Rechercher une autre localisation

Conditions de vol :


Nous sommes le : Mercredi 22 septembre 2021
Il est 21:48 UTC (23:48 LT)

Lever de soleil : 05:00 UTC (07:00 LT)
Coucher de soleil : 18:04 UTC (20:04 LT)

Météo

L'essentiel des conditions de vol

VIGILANCE MÉTÉO FRANCE - Drôme (26)
Pas de vigilances particulieres
METAR de LFLU
LFLU 221800Z AUTO 35009KT CAVOK 17/12 Q1021

Date d'émission: 22/09/2021
Heure d'émission: 18:00 UTC
Vent: 350° pour 9 KT (17 km/h)
Visibilité horizontale: > 10 km
Plafond : Plafond et visibilité OK (CAVOK)
Température: 17 °C
Point de rosée: 12 °C
Humidité: 72%
Pression (QNH): 1021 hPa
Prévision 24h pour Valence (3 km)
Vent : 135° pour 2 KT (6 km/h)
Temperature Maxi: 19 °C
Temperature Min: 19 °C
Humidité : 60%
Condition : Peu nuageux



Warning: count(): Parameter must be an array or an object that implements Countable in /homepages/6/d509196549/htdocs/droneoxygene/briefing.php on line 743
WEBCAM POUR SAINT-MARCEL-LES-VALENCE

Réglementation

Voler en sécurité

CARTES AERONAUTIQUE 1/500.000
CARTES VAC (LFLU)
SUP AIP




Chargement des AIP...
NOTAM (SAINT-MARCEL-LES-VALENCE + Terrain à proximité / FIR )




Chargement des NOTAMS...
CONTACT PREFECTURE 26
Drôme (26) : ddt-satem@drome.gouv.fr


Avertissement : Les données mises à disposition sont indicatives. Oxygène Drone ne pourra être tenu responsable de dégâts causés aux biens et aux personnes.